createdAt,value
2023-05-23T00:00:38.549Z,82.37
2023-05-23T00:01:38.536Z,82.37
2023-05-23T00:02:38.742Z,82.37
2023-05-23T00:03:38.626Z,82.46
2023-05-23T00:04:38.568Z,82.37
2023-05-23T00:05:38.675Z,82.57
2023-05-23T00:06:38.544Z,82.46
2023-05-23T00:07:38.670Z,82.37
2023-05-23T00:08:38.565Z,82.46
2023-05-23T00:09:38.561Z,82.26
2023-05-23T00:10:38.556Z,82.57
2023-05-23T00:11:38.549Z,82.46
2023-05-23T00:12:38.557Z,82.46
2023-05-23T00:13:38.553Z,82.67
2023-05-23T00:14:38.559Z,82.37
2023-05-23T00:15:38.669Z,82.46
2023-05-23T00:16:38.607Z,82.37
2023-05-23T00:17:38.736Z,82.37
2023-05-23T00:18:38.558Z,82.37
2023-05-23T00:19:38.646Z,82.57
2023-05-23T00:20:38.568Z,82.57
2023-05-23T00:21:38.562Z,82.46
2023-05-23T00:22:38.559Z,82.37
2023-05-23T00:23:38.693Z,82.46
2023-05-23T00:24:38.564Z,82.37
2023-05-23T00:25:38.654Z,82.46
2023-05-23T00:26:38.561Z,82.40
2023-05-23T00:27:38.561Z,82.37
2023-05-23T00:28:38.576Z,82.46
2023-05-23T00:29:38.565Z,82.46
2023-05-23T00:30:38.578Z,82.57
2023-05-23T00:31:38.631Z,82.31
2023-05-23T00:32:38.612Z,82.26
2023-05-23T00:33:38.570Z,82.40
2023-05-23T00:34:38.583Z,82.26
2023-05-23T00:35:38.656Z,82.40
2023-05-23T00:36:38.586Z,82.40
2023-05-23T00:37:38.572Z,82.06
2023-05-23T00:38:38.580Z,82.06
2023-05-23T00:39:38.691Z,82.10
2023-05-23T00:40:38.579Z,82.37
2023-05-23T00:41:38.580Z,82.51
2023-05-23T00:42:38.605Z,82.51
2023-05-23T00:43:38.579Z,82.60
2023-05-23T00:44:38.584Z,82.45
2023-05-23T00:45:38.747Z,82.45
2023-05-23T00:46:38.655Z,82.40
2023-05-23T00:47:38.635Z,82.70
2023-05-23T00:48:38.607Z,82.24
2023-05-23T00:49:38.590Z,82.40
2023-05-23T00:50:38.587Z,82.10
2023-05-23T00:51:38.586Z,82.60
2023-05-23T00:52:38.588Z,82.24
2023-05-23T00:53:38.586Z,83.35
2023-05-23T00:54:38.599Z,82.54
2023-05-23T00:55:39.013Z,83.55
2023-05-23T00:56:38.595Z,83.35
2023-05-23T00:57:38.599Z,83.55
2023-05-23T00:58:38.596Z,83.25
2023-05-23T00:59:38.600Z,84.05
2023-05-23T01:00:38.645Z,83.95
2023-05-23T01:01:38.637Z,83.55
2023-05-23T01:02:38.615Z,83.75
2023-05-23T01:03:38.749Z,83.75
2023-05-23T01:04:38.599Z,84.29
2023-05-23T01:05:38.801Z,83.59
2023-05-23T01:06:38.605Z,83.59
2023-05-23T01:07:38.600Z,84.09
2023-05-23T01:08:38.618Z,84.09
2023-05-23T01:09:38.607Z,84.29
2023-05-23T01:10:38.607Z,84.39
2023-05-23T01:11:38.729Z,84.89
2023-05-23T01:12:38.603Z,84.89
2023-05-23T01:13:38.619Z,84.80
2023-05-23T01:14:38.612Z,84.29
2023-05-23T01:15:38.772Z,85.10
2023-05-23T01:16:38.638Z,84.59
2023-05-23T01:17:38.647Z,85.39
2023-05-23T01:18:38.624Z,84.89
2023-05-23T01:19:38.604Z,84.39
2023-05-23T01:20:38.603Z,84.89
2023-05-23T01:21:38.607Z,85.90
2023-05-23T01:22:38.627Z,84.80
2023-05-23T01:23:38.606Z,84.89
2023-05-23T01:24:38.610Z,85.50
2023-05-23T01:25:38.752Z,84.89
2023-05-23T01:26:38.613Z,84.89
2023-05-23T01:27:38.730Z,84.99
2023-05-23T01:28:38.620Z,85.80
2023-05-23T01:29:38.607Z,85.39
2023-05-23T01:30:38.629Z,85.19
2023-05-23T01:31:38.688Z,85.80
2023-05-23T01:32:38.668Z,85.50
2023-05-23T01:33:38.625Z,85.50
2023-05-23T01:34:38.621Z,85.30
2023-05-23T01:35:38.811Z,85.19
2023-05-23T01:36:38.614Z,85.50
2023-05-23T01:37:38.612Z,85.50
2023-05-23T01:38:38.619Z,85.70
2023-05-23T01:39:38.624Z,85.94
2023-05-23T01:40:38.620Z,85.90
2023-05-23T01:41:38.626Z,86.10
2023-05-23T01:42:38.624Z,85.90
2023-05-23T01:43:38.755Z,85.90
2023-05-23T01:44:38.641Z,85.19
2023-05-23T01:45:38.853Z,85.10
2023-05-23T01:46:38.630Z,85.90
2023-05-23T01:47:38.654Z,85.80
2023-05-23T01:48:38.631Z,85.80
2023-05-23T01:49:38.631Z,85.90
2023-05-23T01:50:38.634Z,85.90
2023-05-23T01:51:38.635Z,85.50
2023-05-23T01:52:38.630Z,85.30
2023-05-23T01:53:38.645Z,85.90
2023-05-23T01:54:38.634Z,86.30
2023-05-23T01:55:38.760Z,86.20
2023-05-23T01:56:38.649Z,86.50
2023-05-23T01:57:38.637Z,86.20
2023-05-23T01:58:38.640Z,85.60
2023-05-23T01:59:38.781Z,85.90
2023-05-23T02:00:38.636Z,85.70
2023-05-23T02:01:38.684Z,85.80
2023-05-23T02:02:38.729Z,85.80
2023-05-23T02:03:38.674Z,86.00
2023-05-23T02:04:38.646Z,85.80
2023-05-23T02:05:38.729Z,85.90
2023-05-23T02:06:38.642Z,85.80
2023-05-23T02:07:38.646Z,85.80
2023-05-23T02:08:38.643Z,85.70
2023-05-23T02:09:38.653Z,85.90
2023-05-23T02:10:38.651Z,85.80
2023-05-23T02:11:38.653Z,85.80
2023-05-23T02:12:38.651Z,86.40
2023-05-23T02:13:38.663Z,85.90
2023-05-23T02:14:38.648Z,85.60
2023-05-23T02:15:39.190Z,86.10
2023-05-23T02:16:38.735Z,85.90
2023-05-23T02:17:38.718Z,86.20
2023-05-23T02:18:38.652Z,86.40
2023-05-23T02:19:38.719Z,86.10
2023-05-23T02:20:38.653Z,85.80
2023-05-23T02:21:38.658Z,86.30
2023-05-23T02:22:38.658Z,86.30
2023-05-23T02:23:38.668Z,86.40
2023-05-23T02:24:38.655Z,86.20
2023-05-23T02:25:38.819Z,86.30
2023-05-23T02:26:38.662Z,86.80
2023-05-23T02:27:38.665Z,85.60
2023-05-23T02:28:38.657Z,85.70
2023-05-23T02:29:38.663Z,85.60
2023-05-23T02:30:38.666Z,85.90
2023-05-23T02:31:38.905Z,85.90
2023-05-23T02:32:38.700Z,86.00
2023-05-23T02:33:38.665Z,86.60
2023-05-23T02:34:38.670Z,86.20
2023-05-23T02:35:38.919Z,85.80
2023-05-23T02:36:38.666Z,85.80
2023-05-23T02:37:38.670Z,85.80
2023-05-23T02:38:38.669Z,85.90
2023-05-23T02:39:38.668Z,85.60
2023-05-23T02:40:38.674Z,86.20
2023-05-23T02:41:38.680Z,85.90
2023-05-23T02:42:38.687Z,86.70
2023-05-23T02:43:38.673Z,86.00
2023-05-23T02:44:38.665Z,86.00
2023-05-23T02:45:38.848Z,85.50
2023-05-23T02:46:38.698Z,85.80
2023-05-23T02:47:38.870Z,85.75
2023-05-23T02:48:38.685Z,85.16
2023-05-23T02:49:38.681Z,84.75
2023-05-23T02:50:38.673Z,85.16
2023-05-23T02:51:38.678Z,85.70
2023-05-23T02:52:38.678Z,85.36
2023-05-23T02:53:38.688Z,85.96
2023-05-23T02:54:38.677Z,85.36
2023-05-23T02:55:39.193Z,85.16
2023-05-23T02:56:38.681Z,85.56
2023-05-23T02:57:38.678Z,85.05
2023-05-23T02:58:38.683Z,85.86
2023-05-23T02:59:38.722Z,86.66
2023-05-23T03:00:38.680Z,85.75
2023-05-23T03:01:38.705Z,87.37
2023-05-23T03:02:38.784Z,86.62
2023-05-23T03:03:38.906Z,86.06
2023-05-23T03:04:38.735Z,85.86
2023-05-23T03:05:39.056Z,86.96
2023-05-23T03:06:38.700Z,85.86
2023-05-23T03:07:38.702Z,87.66
2023-05-23T03:08:38.702Z,86.76
2023-05-23T03:09:38.694Z,86.46
2023-05-23T03:10:38.718Z,86.76
2023-05-23T03:11:38.706Z,86.86
2023-05-23T03:12:38.701Z,86.56
2023-05-23T03:13:38.742Z,86.76
2023-05-23T03:14:38.707Z,86.16
2023-05-23T03:15:38.906Z,86.86
2023-05-23T03:16:38.816Z,86.86
2023-05-23T03:17:38.772Z,86.56
2023-05-23T03:18:38.706Z,86.66
2023-05-23T03:19:38.810Z,86.96
2023-05-23T03:20:38.720Z,87.06
2023-05-23T03:21:38.710Z,87.16
2023-05-23T03:22:38.714Z,86.16
2023-05-23T03:23:38.711Z,86.06
2023-05-23T03:24:38.714Z,86.46
2023-05-23T03:25:38.826Z,86.42
2023-05-23T03:26:38.712Z,87.22
2023-05-23T03:27:38.720Z,86.16
2023-05-23T03:28:38.727Z,87.77
2023-05-23T03:29:38.712Z,86.76
2023-05-23T03:30:38.719Z,86.72
2023-05-23T03:31:38.753Z,86.66
2023-05-23T03:32:38.768Z,87.46
2023-05-23T03:33:40.507Z,86.76
2023-05-23T03:34:38.718Z,85.86
2023-05-23T03:35:39.166Z,86.46
2023-05-23T03:36:38.721Z,86.12
2023-05-23T03:37:38.727Z,85.75
2023-05-23T03:38:38.720Z,85.92
2023-05-23T03:39:39.845Z,88.47
2023-05-23T03:40:38.720Z,87.32
2023-05-23T03:41:38.727Z,89.03
2023-05-23T03:42:38.734Z,87.62
2023-05-23T03:43:38.728Z,87.62
2023-05-23T03:44:38.746Z,87.73
2023-05-23T03:45:38.961Z,87.82
2023-05-23T03:46:40.099Z,87.93
2023-05-23T03:47:38.757Z,88.07
2023-05-23T03:48:38.727Z,88.23
2023-05-23T03:49:38.723Z,88.02
2023-05-23T03:50:38.733Z,88.17
2023-05-23T03:51:38.860Z,88.02
2023-05-23T03:52:38.727Z,88.37
2023-05-23T03:53:38.737Z,88.27
2023-05-23T03:54:39.063Z,88.57
2023-05-23T03:55:38.937Z,89.83
2023-05-23T03:56:38.738Z,88.53
2023-05-23T03:57:38.741Z,88.43
2023-05-23T03:58:38.738Z,88.23
2023-05-23T03:59:38.756Z,88.63
2023-05-23T04:00:38.737Z,89.94
2023-05-23T04:01:38.743Z,88.12
2023-05-23T04:02:38.822Z,89.33
2023-05-23T04:03:38.864Z,89.94
2023-05-23T04:04:38.821Z,89.03
2023-05-23T04:05:39.022Z,88.93
2023-05-23T04:06:38.737Z,89.23
2023-05-23T04:07:38.877Z,88.87
2023-05-23T04:08:38.753Z,88.53
2023-05-23T04:09:38.753Z,88.93
2023-05-23T04:10:38.750Z,88.12
2023-05-23T04:11:38.747Z,88.43
2023-05-23T04:12:38.741Z,88.32
2023-05-23T04:13:38.745Z,88.32
2023-05-23T04:14:38.744Z,88.73
2023-05-23T04:15:38.851Z,88.32
2023-05-23T04:16:38.986Z,88.18
2023-05-23T04:17:38.804Z,88.02
2023-05-23T04:18:38.761Z,88.73
2023-05-23T04:19:38.872Z,88.43
2023-05-23T04:20:38.751Z,88.63
2023-05-23T04:21:38.750Z,88.73
2023-05-23T04:22:38.739Z,88.73
2023-05-23T04:23:38.861Z,88.32
2023-05-23T04:24:38.746Z,88.43
2023-05-23T04:25:38.860Z,88.93
2023-05-23T04:26:38.740Z,88.83
2023-05-23T04:27:40.177Z,88.43
2023-05-23T04:28:38.738Z,88.57
2023-05-23T04:29:38.764Z,88.02
2023-05-23T04:30:38.749Z,88.12
2023-05-23T04:31:38.826Z,87.82
2023-05-23T04:32:38.789Z,87.52
2023-05-23T04:33:38.760Z,88.39
2023-05-23T04:34:38.749Z,88.43
2023-05-23T04:35:39.044Z,88.43
2023-05-23T04:36:38.755Z,88.43
2023-05-23T04:37:38.768Z,88.43
2023-05-23T04:38:38.762Z,88.23
2023-05-23T04:39:38.879Z,88.83
2023-05-23T04:40:38.766Z,89.63
2023-05-23T04:41:38.930Z,88.02
2023-05-23T04:42:38.763Z,90.94
2023-05-23T04:43:38.764Z,89.43
2023-05-23T04:44:38.786Z,89.33
2023-05-23T04:45:39.088Z,88.63
2023-05-23T04:46:38.815Z,89.43
2023-05-23T04:47:38.919Z,90.13
2023-05-23T04:48:38.927Z,89.18
2023-05-23T04:49:38.848Z,89.59
2023-05-23T04:50:38.813Z,89.09
2023-05-23T04:51:38.774Z,89.69
2023-05-23T04:52:38.816Z,88.99
2023-05-23T04:53:38.829Z,89.29
2023-05-23T04:54:38.762Z,89.59
2023-05-23T04:55:39.213Z,89.18
2023-05-23T04:56:38.762Z,89.29
2023-05-23T04:57:38.784Z,89.18
2023-05-23T04:58:38.766Z,89.18
2023-05-23T04:59:38.787Z,89.29
2023-05-23T05:00:39.098Z,89.89
2023-05-23T05:01:38.797Z,90.09
2023-05-23T05:02:38.805Z,89.79
2023-05-23T05:03:38.819Z,90.09
2023-05-23T05:04:38.775Z,88.99
2023-05-23T05:05:38.772Z,89.59
2023-05-23T05:06:38.775Z,89.59
2023-05-23T05:07:38.778Z,90.29
2023-05-23T05:08:38.772Z,89.99
2023-05-23T05:09:38.777Z,90.79
2023-05-23T05:10:38.985Z,90.39
2023-05-23T05:11:38.915Z,90.09
2023-05-23T05:12:38.778Z,90.49
2023-05-23T05:13:38.794Z,91.09
2023-05-23T05:14:38.779Z,90.69
2023-05-23T05:15:38.791Z,91.89
2023-05-23T05:16:38.829Z,91.39
2023-05-23T05:17:38.811Z,90.19
2023-05-23T05:18:38.778Z,91.45
2023-05-23T05:19:38.832Z,91.39
2023-05-23T05:20:38.889Z,91.50
2023-05-23T05:21:38.788Z,92.30
2023-05-23T05:22:38.793Z,92.10
2023-05-23T05:23:38.798Z,92.30
2023-05-23T05:24:38.790Z,92.50
2023-05-23T05:25:38.791Z,93.10
2023-05-23T05:26:38.783Z,92.60
2023-05-23T05:27:38.907Z,93.35
2023-05-23T05:28:38.802Z,93.44
2023-05-23T05:29:38.798Z,94.35
2023-05-23T05:30:39.070Z,94.55
2023-05-23T05:31:38.905Z,95.25
2023-05-23T05:32:38.848Z,94.51
2023-05-23T05:33:38.788Z,94.51
2023-05-23T05:34:38.792Z,94.51
2023-05-23T05:35:38.796Z,94.81
2023-05-23T05:36:38.790Z,94.90
2023-05-23T05:37:38.801Z,96.01
2023-05-23T05:38:38.790Z,94.90
2023-05-23T05:39:38.803Z,95.26
2023-05-23T05:40:39.009Z,95.06
2023-05-23T05:41:38.801Z,95.41
2023-05-23T05:42:38.797Z,96.31
2023-05-23T05:43:38.940Z,95.10
2023-05-23T05:44:38.808Z,95.47
2023-05-23T05:45:38.809Z,96.51
2023-05-23T05:46:38.830Z,96.41
2023-05-23T05:47:38.865Z,96.71
2023-05-23T05:48:38.814Z,95.51
2023-05-23T05:49:38.823Z,97.81
2023-05-23T05:50:38.900Z,98.11
2023-05-23T05:51:38.809Z,98.22
2023-05-23T05:52:38.811Z,95.41
2023-05-23T05:53:38.808Z,97.21
2023-05-23T05:54:38.813Z,97.11
2023-05-23T05:55:38.815Z,96.81
2023-05-23T05:56:38.817Z,97.02
2023-05-23T05:57:38.854Z,97.11
2023-05-23T05:58:38.814Z,97.41
2023-05-23T05:59:38.935Z,96.81
2023-05-23T06:00:39.074Z,96.76
2023-05-23T06:01:38.824Z,96.91
2023-05-23T06:02:38.851Z,96.51
2023-05-23T06:03:38.969Z,97.11
2023-05-23T06:04:38.931Z,97.02
2023-05-23T06:05:38.818Z,98.72
2023-05-23T06:06:38.823Z,97.02
2023-05-23T06:07:38.826Z,98.52
2023-05-23T06:08:38.840Z,97.21
2023-05-23T06:09:38.828Z,98.42
2023-05-23T06:10:39.073Z,97.21
2023-05-23T06:11:38.827Z,99.99
2023-05-23T06:12:38.838Z,99.99
2023-05-23T06:13:38.825Z,99.99
2023-05-23T06:14:38.834Z,99.99
2023-05-23T06:15:38.973Z,99.99
2023-05-23T06:16:38.952Z,99.99
2023-05-23T06:17:38.873Z,99.99
2023-05-23T06:18:38.840Z,99.99
2023-05-23T06:19:38.917Z,99.99
2023-05-23T06:20:39.026Z,99.99
2023-05-23T06:21:38.877Z,99.99
2023-05-23T06:22:38.839Z,99.99
2023-05-23T06:23:38.846Z,99.99
2023-05-23T06:24:38.838Z,99.99
2023-05-23T06:25:38.845Z,99.99
2023-05-23T06:26:38.852Z,99.99
2023-05-23T06:27:38.839Z,99.99
2023-05-23T06:28:38.854Z,99.99
2023-05-23T06:29:38.846Z,99.99
2023-05-23T06:30:39.114Z,99.99
2023-05-23T06:31:39.034Z,99.99
2023-05-23T06:32:38.887Z,99.99
2023-05-23T06:33:38.860Z,99.99
2023-05-23T06:34:38.865Z,99.99
2023-05-23T06:35:38.845Z,99.99
2023-05-23T06:36:38.848Z,99.99
2023-05-23T06:37:38.847Z,99.99
2023-05-23T06:38:38.849Z,99.99
2023-05-23T06:39:38.848Z,99.99
2023-05-23T06:40:38.995Z,99.99
2023-05-23T06:41:38.853Z,99.99
2023-05-23T06:42:38.853Z,99.99
2023-05-23T06:43:38.852Z,99.99
2023-05-23T06:44:38.853Z,99.99
2023-05-23T06:45:38.933Z,99.99
2023-05-23T06:46:40.355Z,98.42
2023-05-23T06:47:38.984Z,98.42
2023-05-23T06:48:38.855Z,97.41
2023-05-23T06:49:38.855Z,99.32
2023-05-23T06:50:38.987Z,99.22
2023-05-23T06:51:38.884Z,99.42
2023-05-23T06:52:38.862Z,98.42
2023-05-23T06:53:38.858Z,99.22
2023-05-23T06:54:38.860Z,99.12
2023-05-23T06:55:38.862Z,99.07
2023-05-23T06:56:38.884Z,98.37
2023-05-23T06:57:38.873Z,98.87
2023-05-23T06:58:38.876Z,97.11
2023-05-23T06:59:38.866Z,98.67
2023-05-23T07:00:39.019Z,98.27
2023-05-23T07:01:38.960Z,97.67
2023-05-23T07:02:38.919Z,96.52
2023-05-23T07:03:38.894Z,97.62
2023-05-23T07:04:38.874Z,98.02
2023-05-23T07:05:40.851Z,96.42
2023-05-23T07:06:38.880Z,96.88
2023-05-23T07:07:38.876Z,96.47
2023-05-23T07:08:38.887Z,95.97
2023-05-23T07:09:38.874Z,95.23
2023-05-23T07:10:39.000Z,95.12
2023-05-23T07:11:38.875Z,94.02
2023-05-23T07:12:38.877Z,95.03
2023-05-23T07:13:38.877Z,94.48
2023-05-23T07:14:38.880Z,94.08
2023-05-23T07:15:38.883Z,93.78
2023-05-23T07:16:38.945Z,94.18
2023-05-23T07:17:38.912Z,94.73
2023-05-23T07:18:38.948Z,94.64
2023-05-23T07:19:39.018Z,93.19
2023-05-23T07:20:39.201Z,91.05
2023-05-23T07:21:38.887Z,91.40
2023-05-23T07:22:38.892Z,91.10
2023-05-23T07:23:38.885Z,91.40
2023-05-23T07:24:38.893Z,91.36
2023-05-23T07:25:42.190Z,90.26
2023-05-23T07:26:38.903Z,89.56
2023-05-23T07:27:38.897Z,90.86
2023-05-23T07:28:38.904Z,90.76
2023-05-23T07:29:38.899Z,90.42
2023-05-23T07:30:39.149Z,90.81
2023-05-23T07:31:38.902Z,90.81
2023-05-23T07:32:38.926Z,89.22
2023-05-23T07:33:38.901Z,90.28
2023-05-23T07:34:38.909Z,88.64
2023-05-23T07:35:38.968Z,87.48
2023-05-23T07:36:38.906Z,86.54
2023-05-23T07:37:38.914Z,86.94
2023-05-23T07:38:38.909Z,88.13
2023-05-23T07:39:38.915Z,87.40
2023-05-23T07:40:39.193Z,87.05
2023-05-23T07:41:38.909Z,87.70
2023-05-23T07:42:38.924Z,87.85
2023-05-23T07:43:38.941Z,85.36
2023-05-23T07:44:38.921Z,84.91
2023-05-23T07:45:38.916Z,85.90
2023-05-23T07:46:38.952Z,85.11
2023-05-23T07:47:38.952Z,84.56
2023-05-23T07:48:38.962Z,84.51
2023-05-23T07:49:38.924Z,83.75
2023-05-23T07:50:39.023Z,84.15
2023-05-23T07:51:38.956Z,85.11
2023-05-23T07:52:38.939Z,83.71
2023-05-23T07:53:38.935Z,84.01
2023-05-23T07:54:38.936Z,85.21
2023-05-23T07:55:38.937Z,84.37
2023-05-23T07:56:38.944Z,84.97
2023-05-23T07:57:38.941Z,83.87
2023-05-23T07:58:38.945Z,83.79
2023-05-23T07:59:38.942Z,81.66
2023-05-23T08:00:39.167Z,81.72
2023-05-23T08:01:38.995Z,81.02
2023-05-23T08:02:38.983Z,82.28
2023-05-23T08:03:38.954Z,82.43
2023-05-23T08:04:39.057Z,80.04
2023-05-23T08:05:38.954Z,79.21
2023-05-23T08:06:43.399Z,78.38
2023-05-23T08:07:39.040Z,77.84
2023-05-23T08:08:38.970Z,76.98
2023-05-23T08:09:38.965Z,78.26
2023-05-23T08:10:39.003Z,77.93
2023-05-23T08:11:38.980Z,77.53
2023-05-23T08:12:38.980Z,76.58
2023-05-23T08:13:38.975Z,77.37
2023-05-23T08:14:50.572Z,77.20
2023-05-23T08:15:38.994Z,75.64
2023-05-23T08:16:39.117Z,73.99
2023-05-23T08:17:39.035Z,74.90
2023-05-23T08:18:39.090Z,75.62
2023-05-23T08:19:39.029Z,73.64
2023-05-23T08:20:39.239Z,71.84
2023-05-23T08:21:39.012Z,71.64
2023-05-23T08:22:39.025Z,70.82
2023-05-23T08:23:39.046Z,69.35
2023-05-23T08:24:39.038Z,69.42
2023-05-23T08:25:39.034Z,69.51
2023-05-23T08:26:39.035Z,71.22
2023-05-23T08:27:39.045Z,71.38
2023-05-23T08:28:39.047Z,70.98
2023-05-23T08:29:39.053Z,71.51
2023-05-23T08:30:39.246Z,70.63
2023-05-23T08:31:39.099Z,72.24
2023-05-23T08:32:39.119Z,71.22
2023-05-23T08:33:39.087Z,69.06
2023-05-23T08:34:39.094Z,69.54
2023-05-23T08:35:39.102Z,68.96
2023-05-23T08:36:39.101Z,68.99
2023-05-23T08:37:39.135Z,68.79
2023-05-23T08:38:39.116Z,67.19
2023-05-23T08:39:39.142Z,66.96
2023-05-23T08:40:39.218Z,65.84
2023-05-23T08:41:39.148Z,66.24
2023-05-23T08:42:39.192Z,65.81
2023-05-23T08:43:39.153Z,65.42
2023-05-23T08:44:39.160Z,65.84
2023-05-23T08:45:39.167Z,65.45
2023-05-23T08:46:39.221Z,65.13
2023-05-23T08:47:39.214Z,65.00
2023-05-23T08:48:39.207Z,64.90
2023-05-23T08:49:39.213Z,65.72
2023-05-23T08:50:39.440Z,65.91
2023-05-23T08:51:39.213Z,64.90
2023-05-23T08:52:39.225Z,64.34
2023-05-23T08:53:39.238Z,64.41
2023-05-23T08:54:39.253Z,62.55
2023-05-23T08:55:39.501Z,64.18
2023-05-23T08:56:39.264Z,63.11
2023-05-23T08:57:39.294Z,62.49
2023-05-23T08:58:39.285Z,64.03
2023-05-23T08:59:39.290Z,62.62
2023-05-23T09:00:39.305Z,63.66
2023-05-23T09:01:39.328Z,64.34
2023-05-23T09:02:39.383Z,64.77
2023-05-23T09:03:39.338Z,65.81
2023-05-23T09:04:39.345Z,64.80
2023-05-23T09:05:39.466Z,64.22
2023-05-23T09:06:39.369Z,65.30
2023-05-23T09:07:39.387Z,65.45
2023-05-23T09:08:39.393Z,64.06
2023-05-23T09:09:39.402Z,63.79
2023-05-23T09:10:39.611Z,62.03
2023-05-23T09:11:39.440Z,62.19
2023-05-23T09:12:39.431Z,63.28
2023-05-23T09:13:39.448Z,63.40
2023-05-23T09:14:39.455Z,63.14
2023-05-23T09:15:39.471Z,63.49
2023-05-23T09:16:39.555Z,64.77
2023-05-23T09:17:39.507Z,66.20
2023-05-23T09:18:39.506Z,64.94
2023-05-23T09:19:39.567Z,61.48
2023-05-23T09:20:39.697Z,63.05
2023-05-23T09:21:39.538Z,62.76
2023-05-23T09:22:39.558Z,62.88
2023-05-23T09:23:39.574Z,64.64
2023-05-23T09:24:39.591Z,64.77
2023-05-23T09:25:39.589Z,63.44
2023-05-23T09:26:39.595Z,62.66
2023-05-23T09:27:39.628Z,61.72
2023-05-23T09:28:39.626Z,61.93
2023-05-23T09:29:39.637Z,59.95
2023-05-23T09:30:39.796Z,59.61
2023-05-23T09:31:39.673Z,58.73
2023-05-23T09:32:39.714Z,58.67
2023-05-23T09:33:39.692Z,58.44
2023-05-23T09:34:39.702Z,57.86
2023-05-23T09:35:39.712Z,57.83
2023-05-23T09:36:39.744Z,57.80
2023-05-23T09:37:39.763Z,57.26
2023-05-23T09:38:39.802Z,56.65
2023-05-23T09:39:39.817Z,57.01
2023-05-23T09:40:39.923Z,55.49
2023-05-23T09:41:39.833Z,56.28
2023-05-23T09:42:39.822Z,57.69
2023-05-23T09:43:39.865Z,58.08
2023-05-23T09:44:40.665Z,58.22
2023-05-23T09:45:39.874Z,57.42
2023-05-23T09:46:39.933Z,56.35
2023-05-23T09:47:39.985Z,55.93
2023-05-23T09:48:39.930Z,55.92
2023-05-23T09:49:39.943Z,57.53
2023-05-23T09:50:40.240Z,58.31
2023-05-23T09:51:39.976Z,57.79
2023-05-23T09:52:39.995Z,58.15
2023-05-23T09:53:40.012Z,57.64
2023-05-23T09:54:40.032Z,56.81
2023-05-23T09:55:40.066Z,57.75
2023-05-23T09:56:40.067Z,56.65
2023-05-23T09:57:40.091Z,56.46
2023-05-23T09:58:40.114Z,56.85
2023-05-23T09:59:40.140Z,56.82
2023-05-23T10:00:40.377Z,55.35
2023-05-23T10:01:40.251Z,57.60
2023-05-23T10:02:40.211Z,58.37
2023-05-23T10:03:40.207Z,57.83
2023-05-23T10:04:40.299Z,57.11
2023-05-23T10:05:40.254Z,58.22
2023-05-23T10:06:40.283Z,58.16
2023-05-23T10:07:40.296Z,57.17
2023-05-23T10:08:40.314Z,57.45
2023-05-23T10:09:40.328Z,56.65
2023-05-23T10:10:40.543Z,57.14
2023-05-23T10:11:40.379Z,55.85
2023-05-23T10:12:40.413Z,57.69
2023-05-23T10:13:40.426Z,57.63
2023-05-23T10:14:40.442Z,56.25
2023-05-23T10:15:40.496Z,56.90
2023-05-23T10:16:40.526Z,55.73
2023-05-23T10:17:40.573Z,55.78
2023-05-23T10:18:40.528Z,56.35
2023-05-23T10:19:40.644Z,57.34
2023-05-23T10:20:40.989Z,57.47
2023-05-23T10:21:40.614Z,58.44
2023-05-23T10:22:40.615Z,58.19
2023-05-23T10:23:40.641Z,58.23
2023-05-23T10:24:40.666Z,59.50
2023-05-23T10:25:40.698Z,57.24
2023-05-23T10:26:40.714Z,57.37
2023-05-23T10:27:40.744Z,58.07
2023-05-23T10:28:40.761Z,59.46
2023-05-23T10:29:40.805Z,57.65
2023-05-23T10:30:41.141Z,59.84
2023-05-23T10:31:40.958Z,58.69
2023-05-23T10:32:40.937Z,58.30
2023-05-23T10:33:40.888Z,59.91
2023-05-23T10:34:40.924Z,59.47
2023-05-23T10:35:40.972Z,61.90
2023-05-23T10:36:40.971Z,62.38
2023-05-23T10:37:41.034Z,64.03
2023-05-23T10:38:41.060Z,63.45
2023-05-23T10:39:41.013Z,63.94
2023-05-23T10:40:41.227Z,62.61
2023-05-23T10:41:41.038Z,61.74
2023-05-23T10:42:41.072Z,63.39
2023-05-23T10:43:41.112Z,64.78
2023-05-23T10:44:41.134Z,62.23
2023-05-23T10:45:41.129Z,62.13
2023-05-23T10:46:41.186Z,62.41
2023-05-23T10:47:41.277Z,63.75
2023-05-23T10:48:41.188Z,63.81
2023-05-23T10:49:41.205Z,62.74
2023-05-23T10:50:41.610Z,61.29
2023-05-23T10:51:41.260Z,62.10
2023-05-23T10:52:41.286Z,61.45
2023-05-23T10:53:41.295Z,60.16
2023-05-23T10:54:41.311Z,60.35
2023-05-23T10:55:41.334Z,60.10
2023-05-23T10:56:41.354Z,59.17
2023-05-23T10:57:41.446Z,58.11
2023-05-23T10:58:41.413Z,57.91
2023-05-23T10:59:41.418Z,58.94
2023-05-23T11:00:41.655Z,59.81
2023-05-23T11:01:41.524Z,59.13
2023-05-23T11:02:41.570Z,59.48
2023-05-23T11:03:41.652Z,61.58
2023-05-23T11:04:41.541Z,59.42
2023-05-23T11:05:41.551Z,59.81
2023-05-23T11:06:41.557Z,60.50
2023-05-23T11:07:41.592Z,57.69
2023-05-23T11:08:47.610Z,58.65
2023-05-23T11:09:41.640Z,59.52
2023-05-23T11:10:41.946Z,60.13
2023-05-23T11:11:41.683Z,60.68
2023-05-23T11:12:41.698Z,61.48
2023-05-23T11:13:41.732Z,62.87
2023-05-23T11:14:41.759Z,61.64
2023-05-23T11:15:41.770Z,62.93
2023-05-23T11:16:41.948Z,63.78
2023-05-23T11:17:41.842Z,65.46
2023-05-23T11:18:41.831Z,63.87
2023-05-23T11:19:41.912Z,65.49
2023-05-23T11:20:42.109Z,67.02
2023-05-23T11:21:41.894Z,69.11
2023-05-23T11:22:41.907Z,71.66
2023-05-23T11:23:41.977Z,72.91
2023-05-23T11:24:41.943Z,73.44
2023-05-23T11:25:41.970Z,75.14
2023-05-23T11:26:41.976Z,75.48
2023-05-23T11:27:42.090Z,75.48
2023-05-23T11:28:42.013Z,75.18
2023-05-23T11:29:42.048Z,75.30
2023-05-23T11:30:42.316Z,75.40
2023-05-23T11:31:42.103Z,74.68
2023-05-23T11:32:42.118Z,74.97
2023-05-23T11:33:42.104Z,75.07
2023-05-23T11:34:42.124Z,75.10
2023-05-23T11:35:42.245Z,75.44
2023-05-23T11:36:42.150Z,76.72
2023-05-23T11:37:42.173Z,76.16
2023-05-23T11:38:42.180Z,76.98
2023-05-23T11:39:42.201Z,77.16
2023-05-23T11:40:42.728Z,77.89
2023-05-23T11:41:42.235Z,79.56
2023-05-23T11:42:42.283Z,78.91
2023-05-23T11:43:42.266Z,79.83
2023-05-23T11:44:42.279Z,80.90
2023-05-23T11:45:42.374Z,80.76
2023-05-23T11:46:42.304Z,82.02
2023-05-23T11:47:42.337Z,82.22
2023-05-23T11:48:42.331Z,82.18
2023-05-23T11:49:42.355Z,80.94
2023-05-23T11:50:42.574Z,79.30
2023-05-23T11:51:42.424Z,77.36
2023-05-23T11:52:42.392Z,77.58
2023-05-23T11:53:42.522Z,77.97
2023-05-23T11:54:42.422Z,78.50
2023-05-23T11:55:42.427Z,79.36
2023-05-23T11:56:42.434Z,79.85
2023-05-23T11:57:42.452Z,79.75
2023-05-23T11:58:42.462Z,80.44
2023-05-23T11:59:42.480Z,79.90
2023-05-23T12:00:42.680Z,79.90
2023-05-23T12:01:42.509Z,80.46
2023-05-23T12:02:42.598Z,81.25
2023-05-23T12:03:42.634Z,80.80
2023-05-23T12:04:42.578Z,81.92
2023-05-23T12:05:42.552Z,82.18
2023-05-23T12:06:42.564Z,81.68
2023-05-23T12:07:42.679Z,81.49
2023-05-23T12:08:42.582Z,81.63
2023-05-23T12:09:42.595Z,82.85
2023-05-23T12:10:42.944Z,83.29
2023-05-23T12:11:42.637Z,82.95
2023-05-23T12:12:42.633Z,83.42
2023-05-23T12:13:42.658Z,84.65
2023-05-23T12:14:42.663Z,84.65
2023-05-23T12:15:42.704Z,84.26
2023-05-23T12:16:42.753Z,84.45
2023-05-23T12:17:42.695Z,84.75
2023-05-23T12:18:42.689Z,84.95
2023-05-23T12:19:42.804Z,84.55
2023-05-23T12:20:43.021Z,84.36
2023-05-23T12:21:42.733Z,84.55
2023-05-23T12:22:42.742Z,84.45
2023-05-23T12:23:42.767Z,84.55
2023-05-23T12:24:42.749Z,84.65
2023-05-23T12:25:43.039Z,84.55
2023-05-23T12:26:42.772Z,85.44
2023-05-23T12:27:42.794Z,85.72
2023-05-23T12:28:42.831Z,86.41
2023-05-23T12:29:42.835Z,86.38
2023-05-23T12:30:42.993Z,86.32
2023-05-23T12:31:42.879Z,86.56
2023-05-23T12:32:42.863Z,87.49
2023-05-23T12:33:42.839Z,87.35
2023-05-23T12:34:42.845Z,87.59
2023-05-23T12:35:42.961Z,87.49
2023-05-23T12:36:48.995Z,87.29
2023-05-23T12:37:42.917Z,87.65
2023-05-23T12:38:42.879Z,87.25
2023-05-23T12:39:42.919Z,87.15
2023-05-23T12:40:42.900Z,87.30
2023-05-23T12:41:42.917Z,87.30
2023-05-23T12:42:42.931Z,86.27
2023-05-23T12:43:42.930Z,86.27
2023-05-23T12:44:42.934Z,86.63
2023-05-23T12:45:43.162Z,86.24
2023-05-23T12:46:42.981Z,86.13
2023-05-23T12:47:42.996Z,85.94
2023-05-23T12:48:42.999Z,86.67
2023-05-23T12:49:42.978Z,86.47
2023-05-23T12:50:43.010Z,86.27
2023-05-23T12:51:42.994Z,86.57
2023-05-23T12:52:42.998Z,86.47